Airfield :
LOGIN :

Register | Disclaimer

   EN    FR    IT 

 










Legend :    VFR   Marginal VFR   IFR   Intensive IFR   Very Intensive IFR
Visi :
Ceiling :
>= 8 km
>= 3000ft
5 to 8 km
1000 to 3000 ft
1500m to 5 km
500 to 1000 ft
800 to 1500m
200 to 500 ft
< 800m
< 200 ft
Symbols :   Thunderstorms  Fog  Heavy snow  Heavy precipitations  Wind > 20 kt
SIGMETs :     Misc.  Thunderstorms  Icing  Turbulence  Mountain Waves  Volcanic Ashes






- Airport Elevation : 171 ft
- IATA code : EGC


LFBE - Bergerac

CURRENT METAR :
  • 290730Z AUTO 00000KT 7000 OVC003 05/05 Q1020 TEMPO 3000 BR

EXPIRED METARs :
  • 290700Z AUTO 08003KT 6000 OVC005 05/05 Q1019 TEMPO 0800 FG
  • 290630Z AUTO 06003KT 4900 BR OVC006 04/04 Q1019 TEMPO VV/// BECMG 2000 BR
  • 290600Z AUTO 00000KT 5000 BR BKN002 BKN006 OVC048 04/04 Q1019 TEMPO 0800 FG VV///
  • 290530Z AUTO 15002KT 1400 R27/1800N BR FEW004 BKN049 OVC058 04/04 Q1019
  • 290500Z AUTO VRB02KT 0750 R27/1000U FG VV/// 04/04 Q1019

TAF AMD TAF LFBE
Valid from the 29 at 06:00 until the 30 at 06:00 UTC


290614Z 2906/3006 VRB02KT 7000 BKN010
TEMPO 2906/2911 3000 BR BKN002
PROB30
TEMPO 2906/2909 0800 FG
BECMG 2911/2913 BKN015
BECMG 2922/2924 4500 BR NSC
TEMPO 3000/3006 0800 FG VV///



MET'MAP, your aeronautical weather chart ! - Copyright ORBIFLY December 2007 - Disclaimer

ORBIFLY MET'MAP TEAM :

Programming & Development : Alexandra Zaïnal
Original concept : Baudouin d'Aumeries
Technical & hardware support : Manuel Goepfert
Assistance : Marc-Olivier Méhu




SOURCES & CREDITS :

   NOAA